createdAt,value
2022-07-25T00:00:08.407Z,377
2022-07-25T00:01:08.131Z,379
2022-07-25T00:02:07.527Z,389
2022-07-25T00:03:10.756Z,384
2022-07-25T00:04:08.428Z,385
2022-07-25T00:05:07.452Z,394
2022-07-25T00:06:07.997Z,386
2022-07-25T00:07:07.307Z,387
2022-07-25T00:08:07.932Z,395
2022-07-25T00:09:07.782Z,394
2022-07-25T00:10:07.485Z,392
2022-07-25T00:11:07.880Z,385
2022-07-25T00:12:07.547Z,392
2022-07-25T00:13:07.284Z,387
2022-07-25T00:14:08.095Z,388
2022-07-25T00:15:07.997Z,389
2022-07-25T00:16:07.553Z,386
2022-07-25T00:17:07.279Z,395
2022-07-25T00:18:08.320Z,389
2022-07-25T00:19:07.718Z,382
2022-07-25T00:20:07.420Z,375
2022-07-25T00:21:08.126Z,372
2022-07-25T00:22:07.558Z,378
2022-07-25T00:24:08.590Z,389
2022-07-25T00:25:08.150Z,402
2022-07-25T00:26:07.621Z,381
2022-07-25T00:27:08.242Z,374
2022-07-25T00:28:08.039Z,390
2022-07-25T00:29:07.992Z,371
2022-07-25T00:30:07.866Z,386
2022-07-25T00:31:07.578Z,385
2022-07-25T00:32:07.425Z,384
2022-07-25T00:33:07.793Z,381
2022-07-25T00:34:07.650Z,380
2022-07-25T00:36:07.942Z,385
2022-07-25T00:37:07.351Z,378
2022-07-25T00:39:07.799Z,372
2022-07-25T00:40:07.590Z,366
2022-07-25T00:41:07.884Z,371
2022-07-25T00:42:07.553Z,375
2022-07-25T00:43:07.304Z,382
2022-07-25T00:45:08.043Z,376
2022-07-25T00:46:07.447Z,373
2022-07-25T00:47:07.502Z,385
2022-07-25T00:48:07.943Z,404
2022-07-25T00:49:07.723Z,391
2022-07-25T00:50:07.448Z,375
2022-07-25T00:51:07.347Z,376
2022-07-25T00:52:07.622Z,373
2022-07-25T00:53:07.233Z,396
2022-07-25T00:54:08.299Z,362
2022-07-25T00:55:08.611Z,365
2022-07-25T00:56:07.298Z,374
2022-07-25T00:57:07.878Z,377
2022-07-25T00:58:07.452Z,376
2022-07-25T00:59:07.809Z,378
2022-07-25T01:00:08.260Z,377
2022-07-25T01:01:08.212Z,372
2022-07-25T01:02:07.806Z,378
2022-07-25T01:03:07.448Z,371
2022-07-25T01:04:08.520Z,377
2022-07-25T01:05:07.954Z,370
2022-07-25T01:06:07.427Z,359
2022-07-25T01:07:07.867Z,380
2022-07-25T01:08:07.334Z,365
2022-07-25T01:09:07.994Z,372
2022-07-25T01:10:07.649Z,369
2022-07-25T01:11:07.987Z,372
2022-07-25T01:12:07.533Z,374
2022-07-25T01:13:07.776Z,389
2022-07-25T01:14:07.914Z,380
2022-07-25T01:15:07.721Z,378
2022-07-25T01:16:07.294Z,375
2022-07-25T01:17:07.634Z,371
2022-07-25T01:18:07.932Z,375
2022-07-25T01:19:07.424Z,389
2022-07-25T01:20:07.845Z,368
2022-07-25T01:21:07.409Z,376
2022-07-25T01:22:07.915Z,374
2022-07-25T01:23:07.413Z,373
2022-07-25T01:24:08.204Z,374
2022-07-25T01:25:07.531Z,371
2022-07-25T01:26:07.335Z,392
2022-07-25T01:27:07.880Z,370
2022-07-25T01:28:07.486Z,356
2022-07-25T01:29:07.695Z,362
2022-07-25T01:30:07.650Z,365
2022-07-25T01:31:07.364Z,379
2022-07-25T01:32:07.865Z,371
2022-07-25T01:33:07.418Z,417
2022-07-25T01:34:08.238Z,381
2022-07-25T01:35:08.077Z,369
2022-07-25T01:36:07.738Z,371
2022-07-25T01:37:07.272Z,382
2022-07-25T01:38:07.763Z,383
2022-07-25T01:39:07.499Z,371
2022-07-25T01:40:08.014Z,384
2022-07-25T01:41:07.698Z,381
2022-07-25T01:42:07.599Z,369
2022-07-25T01:44:07.823Z,352
2022-07-25T01:45:07.420Z,370
2022-07-25T01:46:07.758Z,373
2022-07-25T01:47:07.434Z,368
2022-07-25T01:48:07.836Z,353
2022-07-25T01:49:07.515Z,365
2022-07-25T01:50:07.864Z,373
2022-07-25T01:51:07.452Z,375
2022-07-25T01:52:07.995Z,377
2022-07-25T01:53:07.592Z,382
2022-07-25T01:54:10.243Z,372
2022-07-25T01:55:07.396Z,385
2022-07-25T01:57:07.615Z,389
2022-07-25T01:58:07.886Z,393
2022-07-25T01:59:07.605Z,390
2022-07-25T02:00:08.537Z,364
2022-07-25T02:01:07.805Z,362
2022-07-25T02:02:07.355Z,365
2022-07-25T02:03:07.825Z,361
2022-07-25T02:04:07.869Z,374
2022-07-25T02:05:07.254Z,368
2022-07-25T02:06:07.908Z,377
2022-07-25T02:07:07.669Z,381
2022-07-25T02:08:07.208Z,370
2022-07-25T02:11:07.638Z,371
2022-07-25T02:12:07.897Z,375
2022-07-25T02:13:07.321Z,350
2022-07-25T02:14:07.828Z,349
2022-07-25T02:15:07.766Z,356
2022-07-25T02:16:07.337Z,365
2022-07-25T02:17:07.918Z,371
2022-07-25T02:19:07.980Z,375
2022-07-25T02:20:07.494Z,378
2022-07-25T02:21:13.972Z,376
2022-07-25T02:22:07.139Z,378
2022-07-25T02:23:07.970Z,375
2022-07-25T02:24:08.201Z,362
2022-07-25T02:25:07.520Z,371
2022-07-25T02:26:08.057Z,364
2022-07-25T02:27:07.893Z,368
2022-07-25T02:28:07.691Z,358
2022-07-25T02:29:08.026Z,364
2022-07-25T02:30:08.227Z,367
2022-07-25T02:31:07.899Z,366
2022-07-25T02:32:07.582Z,382
2022-07-25T02:33:08.107Z,369
2022-07-25T02:34:07.900Z,368
2022-07-25T02:35:13.035Z,376
2022-07-25T02:36:07.911Z,372
2022-07-25T02:37:07.330Z,368
2022-07-25T02:38:07.735Z,359
2022-07-25T02:39:07.470Z,373
2022-07-25T02:40:08.249Z,340
2022-07-25T02:41:07.687Z,348
2022-07-25T02:42:07.250Z,360
2022-07-25T02:43:08.143Z,367
2022-07-25T02:45:08.116Z,360
2022-07-25T02:46:07.704Z,371
2022-07-25T02:47:07.998Z,363
2022-07-25T02:48:07.523Z,355
2022-07-25T02:49:08.170Z,358
2022-07-25T02:50:08.142Z,371
2022-07-25T02:51:07.403Z,365
2022-07-25T02:52:07.894Z,385
2022-07-25T02:53:07.463Z,350
2022-07-25T02:54:07.319Z,360
2022-07-25T02:55:09.841Z,365
2022-07-25T02:56:07.573Z,361
2022-07-25T02:57:07.843Z,354
2022-07-25T02:58:08.130Z,361
2022-07-25T02:59:07.752Z,373
2022-07-25T03:00:08.075Z,382
2022-07-25T03:01:08.131Z,363
2022-07-25T03:02:07.988Z,375
2022-07-25T03:03:07.573Z,370
2022-07-25T03:04:08.148Z,367
2022-07-25T03:05:08.426Z,373
2022-07-25T03:06:07.571Z,359
2022-07-25T03:07:07.821Z,383
2022-07-25T03:08:07.343Z,381
2022-07-25T03:09:08.063Z,370
2022-07-25T03:10:08.724Z,371
2022-07-25T03:11:07.998Z,382
2022-07-25T03:12:07.797Z,389
2022-07-25T03:13:07.578Z,390
2022-07-25T03:14:07.783Z,389
2022-07-25T03:15:07.593Z,380
2022-07-25T03:16:07.488Z,375
2022-07-25T03:17:08.209Z,373
2022-07-25T03:18:07.881Z,367
2022-07-25T03:19:07.957Z,372
2022-07-25T03:20:07.603Z,414
2022-07-25T03:21:07.465Z,367
2022-07-25T03:22:07.773Z,371
2022-07-25T03:23:07.379Z,374
2022-07-25T03:24:08.173Z,371
2022-07-25T03:25:15.699Z,368
2022-07-25T03:26:07.679Z,366
2022-07-25T03:27:08.118Z,364
2022-07-25T03:28:07.679Z,367
2022-07-25T03:29:07.220Z,376
2022-07-25T03:30:08.034Z,371
2022-07-25T03:31:07.399Z,373
2022-07-25T03:32:07.808Z,379
2022-07-25T03:33:07.373Z,385
2022-07-25T03:34:08.389Z,359
2022-07-25T03:35:08.357Z,362
2022-07-25T03:36:07.926Z,373
2022-07-25T03:37:07.593Z,372
2022-07-25T03:38:08.234Z,381
2022-07-25T03:39:07.853Z,374
2022-07-25T03:40:07.449Z,369
2022-07-25T03:43:07.592Z,375
2022-07-25T03:44:07.950Z,372
2022-07-25T03:46:07.915Z,385
2022-07-25T03:47:07.492Z,365
2022-07-25T03:48:07.816Z,384
2022-07-25T03:49:07.654Z,368
2022-07-25T03:50:07.359Z,366
2022-07-25T03:51:07.618Z,367
2022-07-25T03:52:07.938Z,383
2022-07-25T03:53:07.322Z,373
2022-07-25T03:54:07.832Z,374
2022-07-25T03:55:07.345Z,372
2022-07-25T03:56:07.812Z,374
2022-07-25T03:58:07.272Z,371
2022-07-25T03:59:07.453Z,369
2022-07-25T04:00:08.480Z,367
2022-07-25T04:01:08.065Z,381
2022-07-25T04:02:07.778Z,355
2022-07-25T04:03:07.696Z,363
2022-07-25T04:04:07.944Z,367
2022-07-25T04:05:07.954Z,366
2022-07-25T04:06:07.407Z,370
2022-07-25T04:07:07.628Z,372
2022-07-25T04:08:08.035Z,369
2022-07-25T04:09:07.576Z,370
2022-07-25T04:10:08.545Z,364
2022-07-25T04:11:07.997Z,368
2022-07-25T04:12:07.182Z,364
2022-07-25T04:13:07.507Z,362
2022-07-25T04:14:08.255Z,374
2022-07-25T04:15:08.186Z,354
2022-07-25T04:16:11.629Z,361
2022-07-25T04:18:07.708Z,356
2022-07-25T04:19:08.004Z,354
2022-07-25T04:20:07.773Z,361
2022-07-25T04:21:07.493Z,367
2022-07-25T04:22:07.829Z,374
2022-07-25T04:25:08.137Z,382
2022-07-25T04:26:08.094Z,375
2022-07-25T04:27:08.134Z,376
2022-07-25T04:28:07.698Z,363
2022-07-25T04:29:08.106Z,359
2022-07-25T04:30:07.862Z,361
2022-07-25T04:31:07.663Z,373
2022-07-25T04:32:08.251Z,377
2022-07-25T04:33:07.931Z,375
2022-07-25T04:34:07.851Z,373
2022-07-25T04:35:07.857Z,372
2022-07-25T04:36:07.127Z,381
2022-07-25T04:37:07.432Z,367
2022-07-25T04:38:11.895Z,366
2022-07-25T04:39:07.849Z,359
2022-07-25T04:40:07.641Z,366
2022-07-25T04:42:07.403Z,386
2022-07-25T04:43:08.070Z,347
2022-07-25T04:44:07.798Z,344
2022-07-25T04:45:07.743Z,353
2022-07-25T04:46:07.338Z,367
2022-07-25T04:47:08.069Z,377
2022-07-25T04:48:07.581Z,376
2022-07-25T04:49:08.036Z,366
2022-07-25T04:50:08.201Z,373
2022-07-25T04:51:08.033Z,367
2022-07-25T04:52:07.634Z,352
2022-07-25T04:53:08.357Z,349
2022-07-25T04:54:08.310Z,355
2022-07-25T04:55:07.597Z,368
2022-07-25T04:56:08.276Z,347
2022-07-25T04:57:07.997Z,378
2022-07-25T04:58:07.665Z,382
2022-07-25T04:59:07.444Z,380
2022-07-25T05:00:09.071Z,370
2022-07-25T05:01:07.485Z,359
2022-07-25T05:02:07.283Z,347
2022-07-25T05:03:08.148Z,349
2022-07-25T05:04:08.046Z,357
2022-07-25T05:05:08.267Z,381
2022-07-25T05:06:07.185Z,387
2022-07-25T05:07:07.851Z,375
2022-07-25T05:08:07.380Z,382
2022-07-25T05:09:08.248Z,372
2022-07-25T05:10:08.438Z,364
2022-07-25T05:11:07.418Z,360
2022-07-25T05:12:07.904Z,365
2022-07-25T05:13:07.468Z,367
2022-07-25T05:14:07.929Z,354
2022-07-25T05:15:08.149Z,355
2022-07-25T05:16:08.115Z,358
2022-07-25T05:17:07.838Z,367
2022-07-25T05:18:07.305Z,353
2022-07-25T05:19:07.864Z,355
2022-07-25T05:20:07.327Z,365
2022-07-25T05:21:07.670Z,344
2022-07-25T05:22:07.209Z,389
2022-07-25T05:23:07.683Z,386
2022-07-25T05:24:07.738Z,377
2022-07-25T05:25:08.301Z,369
2022-07-25T05:26:08.188Z,374
2022-07-25T05:27:07.613Z,369
2022-07-25T05:28:07.954Z,368
2022-07-25T05:29:07.412Z,372
2022-07-25T05:31:07.569Z,361
2022-07-25T05:32:07.462Z,363
2022-07-25T05:33:08.065Z,367
2022-07-25T05:34:07.825Z,377
2022-07-25T05:35:08.262Z,372
2022-07-25T05:36:07.985Z,369
2022-07-25T05:37:07.386Z,366
2022-07-25T05:38:08.236Z,357
2022-07-25T05:39:07.835Z,371
2022-07-25T05:40:07.696Z,370
2022-07-25T05:41:07.530Z,376
2022-07-25T05:42:07.448Z,381
2022-07-25T05:43:08.067Z,379
2022-07-25T05:44:08.112Z,376
2022-07-25T05:45:08.385Z,385
2022-07-25T05:46:08.091Z,387
2022-07-25T05:47:07.917Z,362
2022-07-25T05:48:07.546Z,403
2022-07-25T05:49:07.368Z,396
2022-07-25T05:50:07.482Z,382
2022-07-25T05:52:12.433Z,371
2022-07-25T05:53:08.128Z,372
2022-07-25T05:54:08.250Z,378
2022-07-25T05:55:08.449Z,369
2022-07-25T05:56:08.017Z,374
2022-07-25T05:57:07.463Z,382
2022-07-25T05:58:08.360Z,381
2022-07-25T05:59:07.756Z,362
2022-07-25T06:00:08.368Z,383
2022-07-25T06:01:07.596Z,381
2022-07-25T06:02:08.293Z,379
2022-07-25T06:03:07.308Z,382
2022-07-25T06:04:08.410Z,383
2022-07-25T06:05:07.634Z,401
2022-07-25T06:06:07.257Z,389
2022-07-25T06:07:08.087Z,373
2022-07-25T06:08:08.070Z,363
2022-07-25T06:09:08.207Z,372
2022-07-25T06:10:08.065Z,383
2022-07-25T06:11:08.209Z,375
2022-07-25T06:12:08.224Z,381
2022-07-25T06:13:07.807Z,356
2022-07-25T06:14:07.752Z,372
2022-07-25T06:15:12.464Z,365
2022-07-25T06:16:07.856Z,366
2022-07-25T06:17:07.620Z,368
2022-07-25T06:18:07.981Z,376
2022-07-25T06:19:07.775Z,374
2022-07-25T06:20:07.968Z,384
2022-07-25T06:21:07.500Z,380
2022-07-25T06:22:07.969Z,368
2022-07-25T06:23:07.877Z,371
2022-07-25T06:24:07.804Z,379
2022-07-25T06:25:07.692Z,353
2022-07-25T06:26:07.251Z,351
2022-07-25T06:27:07.761Z,371
2022-07-25T06:28:07.254Z,383
2022-07-25T06:29:07.747Z,378
2022-07-25T06:31:07.550Z,365
2022-07-25T06:32:07.336Z,360
2022-07-25T06:33:08.098Z,355
2022-07-25T06:34:08.005Z,360
2022-07-25T06:35:08.094Z,355
2022-07-25T06:36:07.537Z,362
2022-07-25T06:37:07.389Z,335
2022-07-25T06:38:08.177Z,348
2022-07-25T06:39:08.224Z,353
2022-07-25T06:40:08.065Z,367
2022-07-25T06:41:08.250Z,361
2022-07-25T06:43:08.422Z,349
2022-07-25T06:44:08.202Z,350
2022-07-25T06:45:07.600Z,344
2022-07-25T06:46:07.384Z,357
2022-07-25T06:47:08.344Z,382
2022-07-25T06:48:08.031Z,376
2022-07-25T06:49:07.742Z,332
2022-07-25T06:50:08.040Z,351
2022-07-25T06:51:07.760Z,365
2022-07-25T06:52:07.457Z,380
2022-07-25T06:53:08.358Z,366
2022-07-25T06:54:08.907Z,355
2022-07-25T06:55:08.174Z,366
2022-07-25T06:56:07.853Z,352
2022-07-25T06:58:07.481Z,369
2022-07-25T06:59:08.090Z,373
2022-07-25T07:00:08.576Z,382
2022-07-25T07:01:07.565Z,381
2022-07-25T07:02:07.601Z,371
2022-07-25T07:03:07.724Z,365
2022-07-25T07:04:08.119Z,364
2022-07-25T07:05:08.640Z,360
2022-07-25T07:06:08.241Z,365
2022-07-25T07:07:07.911Z,378
2022-07-25T07:08:07.772Z,365
2022-07-25T07:09:07.568Z,362
2022-07-25T07:10:07.548Z,374
2022-07-25T07:11:07.971Z,349
2022-07-25T07:12:07.807Z,397
2022-07-25T07:13:07.678Z,383
2022-07-25T07:14:07.944Z,366
2022-07-25T07:15:07.742Z,359
2022-07-25T07:16:07.597Z,362
2022-07-25T07:18:08.046Z,370
2022-07-25T07:19:08.150Z,378
2022-07-25T07:20:08.177Z,370
2022-07-25T07:21:07.330Z,360
2022-07-25T07:22:07.530Z,363
2022-07-25T07:23:07.985Z,353
2022-07-25T07:24:24.248Z,388
2022-07-25T07:25:07.781Z,382
2022-07-25T07:26:08.159Z,369
2022-07-25T07:27:08.137Z,370
2022-07-25T07:28:08.055Z,363
2022-07-25T07:29:08.047Z,369
2022-07-25T07:30:08.244Z,370
2022-07-25T07:31:17.135Z,378
2022-07-25T07:32:08.179Z,379
2022-07-25T07:33:08.553Z,364
2022-07-25T07:34:08.135Z,358
2022-07-25T07:35:07.985Z,355
2022-07-25T07:36:07.698Z,343
2022-07-25T07:37:07.732Z,354
2022-07-25T07:38:07.411Z,361
2022-07-25T07:39:08.452Z,360
2022-07-25T07:40:07.483Z,366
2022-07-25T07:41:07.541Z,362
2022-07-25T07:42:08.197Z,368
2022-07-25T07:43:07.851Z,373
2022-07-25T07:44:07.653Z,359
2022-07-25T07:45:07.962Z,346
2022-07-25T07:46:07.790Z,348
2022-07-25T07:47:07.566Z,344
2022-07-25T07:48:07.305Z,345
2022-07-25T07:49:08.479Z,361
2022-07-25T07:50:07.666Z,364
2022-07-25T07:51:07.523Z,356
2022-07-25T07:52:08.122Z,360
2022-07-25T07:53:07.849Z,354
2022-07-25T07:54:07.324Z,349
2022-07-25T07:55:08.054Z,355
2022-07-25T07:56:07.640Z,356
2022-07-25T07:57:07.318Z,358
2022-07-25T07:58:07.694Z,353
2022-07-25T07:59:08.010Z,364
2022-07-25T08:00:11.447Z,369
2022-07-25T08:01:07.554Z,358
2022-07-25T08:02:08.135Z,357
2022-07-25T08:04:08.132Z,359
2022-07-25T08:05:08.424Z,354
2022-07-25T08:06:08.384Z,355
2022-07-25T08:07:08.367Z,361
2022-07-25T08:08:08.298Z,357
2022-07-25T08:09:08.891Z,354
2022-07-25T08:10:08.005Z,357
2022-07-25T08:12:07.542Z,361
2022-07-25T08:13:08.009Z,356
2022-07-25T08:14:08.090Z,367
2022-07-25T08:15:08.225Z,354
2022-07-25T08:16:08.184Z,350
2022-07-25T08:17:07.453Z,353
2022-07-25T08:18:17.687Z,355
2022-07-25T08:19:08.112Z,351
2022-07-25T08:20:27.996Z,360
2022-07-25T08:21:07.791Z,375
2022-07-25T08:22:07.472Z,341
2022-07-25T08:23:08.309Z,337
2022-07-25T08:24:09.177Z,339
2022-07-25T08:25:07.758Z,355
2022-07-25T08:26:07.390Z,352
2022-07-25T08:28:07.878Z,358
2022-07-25T08:29:18.597Z,355
2022-07-25T08:30:08.025Z,353
2022-07-25T08:31:07.761Z,358
2022-07-25T08:32:07.847Z,359
2022-07-25T08:33:07.883Z,336
2022-07-25T08:34:08.070Z,348
2022-07-25T08:35:11.361Z,350
2022-07-25T08:37:07.592Z,357
2022-07-25T08:38:07.856Z,351
2022-07-25T08:40:08.109Z,362
2022-07-25T08:41:08.008Z,355
2022-07-25T08:42:11.105Z,338
2022-07-25T08:43:07.443Z,343
2022-07-25T08:44:08.584Z,353
2022-07-25T08:45:07.958Z,343
2022-07-25T08:46:07.664Z,344
2022-07-25T08:47:07.809Z,350
2022-07-25T08:48:07.831Z,355
2022-07-25T08:49:07.913Z,350
2022-07-25T08:50:08.363Z,355
2022-07-25T08:51:08.331Z,344
2022-07-25T08:52:08.087Z,354
2022-07-25T08:53:32.266Z,370
2022-07-25T08:54:08.852Z,363
2022-07-25T08:55:07.594Z,358
2022-07-25T08:56:11.535Z,363
2022-07-25T08:57:07.576Z,362
2022-07-25T08:58:07.626Z,363
2022-07-25T08:59:07.364Z,360
2022-07-25T09:00:08.852Z,351
2022-07-25T09:01:08.471Z,342
2022-07-25T09:02:08.447Z,331
2022-07-25T09:03:08.409Z,333
2022-07-25T09:04:08.615Z,344
2022-07-25T09:05:07.815Z,351
2022-07-25T09:06:07.553Z,354
2022-07-25T09:07:08.490Z,345
2022-07-25T09:08:08.236Z,342
2022-07-25T09:09:08.513Z,343
2022-07-25T09:10:08.473Z,349
2022-07-25T09:12:08.321Z,352
2022-07-25T09:13:08.507Z,348
2022-07-25T09:14:09.040Z,349
2022-07-25T09:15:08.092Z,358
2022-07-25T09:16:07.670Z,350
2022-07-25T09:17:07.558Z,352
2022-07-25T09:18:10.859Z,328
2022-07-25T09:19:07.576Z,330
2022-07-25T09:20:08.360Z,335
2022-07-25T09:21:07.760Z,339
2022-07-25T09:22:07.382Z,342
2022-07-25T09:23:08.404Z,352
2022-07-25T09:24:08.306Z,353
2022-07-25T09:25:07.545Z,351
2022-07-25T09:26:08.548Z,355
2022-07-25T09:27:08.105Z,350
2022-07-25T09:28:07.282Z,352
2022-07-25T09:29:08.100Z,360
2022-07-25T09:30:07.708Z,358
2022-07-25T09:31:07.748Z,346
2022-07-25T09:32:07.973Z,329
2022-07-25T09:33:08.051Z,346
2022-07-25T09:34:08.061Z,342
2022-07-25T09:35:08.059Z,354
2022-07-25T09:36:08.092Z,358
2022-07-25T09:37:08.193Z,354
2022-07-25T09:38:07.885Z,348
2022-07-25T09:39:08.122Z,346
2022-07-25T09:40:07.821Z,355
2022-07-25T09:41:07.521Z,346
2022-07-25T09:42:07.965Z,357
2022-07-25T09:43:07.972Z,348
2022-07-25T09:45:07.990Z,345
2022-07-25T09:46:07.741Z,342
2022-07-25T09:48:08.276Z,355
2022-07-25T09:49:08.302Z,364
2022-07-25T09:50:08.376Z,351
2022-07-25T09:51:08.102Z,353
2022-07-25T09:52:07.492Z,351
2022-07-25T09:53:08.186Z,350
2022-07-25T09:54:08.691Z,346
2022-07-25T09:55:07.985Z,347
2022-07-25T09:56:07.493Z,348
2022-07-25T09:57:08.379Z,353
2022-07-25T09:58:07.669Z,356
2022-07-25T09:59:07.945Z,347
2022-07-25T10:00:08.569Z,348
2022-07-25T10:01:07.606Z,364
2022-07-25T10:02:07.617Z,365
2022-07-25T10:03:07.682Z,370
2022-07-25T10:04:08.420Z,321
2022-07-25T10:05:07.836Z,341
2022-07-25T10:07:07.715Z,351
2022-07-25T10:08:07.464Z,358
2022-07-25T10:09:08.445Z,362
2022-07-25T10:10:08.666Z,352
2022-07-25T10:11:07.749Z,351
2022-07-25T10:12:07.628Z,353
2022-07-25T10:13:10.503Z,343
2022-07-25T10:14:08.005Z,327
2022-07-25T10:15:08.446Z,348
2022-07-25T10:16:07.972Z,350
2022-07-25T10:17:07.549Z,346
2022-07-25T10:19:08.297Z,337
2022-07-25T10:20:08.117Z,356
2022-07-25T10:21:24.542Z,353
2022-07-25T10:22:07.667Z,351
2022-07-25T10:23:08.442Z,349
2022-07-25T10:24:08.603Z,353
2022-07-25T10:25:07.870Z,351
2022-07-25T10:26:07.778Z,360
2022-07-25T10:27:07.935Z,326
2022-07-25T10:28:07.746Z,346
2022-07-25T10:29:07.523Z,355
2022-07-25T10:30:08.470Z,348
2022-07-25T10:31:07.516Z,340
2022-07-25T10:32:07.642Z,339
2022-07-25T10:33:07.553Z,348
2022-07-25T10:34:08.816Z,355
2022-07-25T10:35:08.459Z,369
2022-07-25T10:36:08.152Z,353
2022-07-25T10:37:07.831Z,339
2022-07-25T10:38:07.457Z,382
2022-07-25T10:39:08.266Z,372
2022-07-25T10:40:08.481Z,361
2022-07-25T10:41:07.781Z,364
2022-07-25T10:42:07.736Z,358
2022-07-25T10:43:07.463Z,367
2022-07-25T10:44:08.554Z,372
2022-07-25T10:45:07.517Z,370
2022-07-25T10:46:07.732Z,352
2022-07-25T10:47:07.855Z,364
2022-07-25T10:48:07.523Z,369
2022-07-25T10:49:08.636Z,344
2022-07-25T10:50:25.449Z,400
2022-07-25T10:51:07.767Z,383
2022-07-25T10:52:07.649Z,377
2022-07-25T10:53:08.538Z,373
2022-07-25T10:54:08.091Z,380
2022-07-25T10:55:07.949Z,376
2022-07-25T10:56:07.804Z,371
2022-07-25T10:57:07.574Z,378
2022-07-25T10:58:17.488Z,375
2022-07-25T10:59:08.144Z,384
2022-07-25T11:00:08.323Z,389
2022-07-25T11:01:08.270Z,365
2022-07-25T11:02:08.050Z,386
2022-07-25T11:03:07.902Z,374
2022-07-25T11:04:07.749Z,380
2022-07-25T11:05:07.813Z,387
2022-07-25T11:06:07.668Z,373
2022-07-25T11:07:08.245Z,370
2022-07-25T11:08:20.735Z,377
2022-07-25T11:09:09.001Z,363
2022-07-25T11:10:08.270Z,362
2022-07-25T11:11:08.179Z,380
2022-07-25T11:12:07.930Z,371
2022-07-25T11:13:07.879Z,362
2022-07-25T11:14:07.584Z,374
2022-07-25T11:15:08.260Z,388
2022-07-25T11:16:07.560Z,374
2022-07-25T11:17:08.235Z,378
2022-07-25T11:18:08.126Z,388
2022-07-25T11:19:08.185Z,378
2022-07-25T11:20:08.791Z,373
2022-07-25T11:21:07.844Z,368
2022-07-25T11:22:07.619Z,381
2022-07-25T11:23:07.678Z,380
2022-07-25T11:24:07.441Z,383
2022-07-25T11:25:08.442Z,369
2022-07-25T11:27:12.424Z,362
2022-07-25T11:28:07.769Z,365
2022-07-25T11:30:08.247Z,357
2022-07-25T11:31:08.214Z,365
2022-07-25T11:32:08.149Z,361
2022-07-25T11:33:08.109Z,362
2022-07-25T11:34:08.182Z,373
2022-07-25T11:35:08.523Z,374
2022-07-25T11:36:08.212Z,372
2022-07-25T11:37:08.089Z,361
2022-07-25T11:38:08.257Z,356
2022-07-25T11:40:08.264Z,365
2022-07-25T11:41:08.059Z,356
2022-07-25T11:43:07.917Z,360
2022-07-25T11:44:07.784Z,357
2022-07-25T11:45:07.845Z,360
2022-07-25T11:46:07.980Z,362
2022-07-25T11:47:08.024Z,372
2022-07-25T11:48:07.836Z,382
2022-07-25T11:49:07.800Z,362
2022-07-25T11:50:08.066Z,361
2022-07-25T11:51:08.095Z,374
2022-07-25T11:52:08.330Z,379
2022-07-25T11:53:07.065Z,365
2022-07-25T11:54:07.983Z,374
2022-07-25T11:55:07.679Z,357
2022-07-25T11:56:32.158Z,353
2022-07-25T11:57:08.052Z,365
2022-07-25T11:58:07.685Z,369
2022-07-25T11:59:08.344Z,357
2022-07-25T12:00:09.000Z,364
2022-07-25T12:01:08.276Z,357
2022-07-25T12:02:07.994Z,364
2022-07-25T12:03:08.357Z,356
2022-07-25T12:04:07.576Z,355
2022-07-25T12:05:07.958Z,359
2022-07-25T12:06:08.440Z,354
2022-07-25T12:07:08.282Z,344
2022-07-25T12:08:08.427Z,345
2022-07-25T12:09:08.753Z,347
2022-07-25T12:10:08.696Z,352
2022-07-25T12:11:07.984Z,338
2022-07-25T12:12:08.303Z,377
2022-07-25T12:13:08.173Z,365
2022-07-25T12:14:08.397Z,373
2022-07-25T12:15:08.104Z,386
2022-07-25T12:16:08.232Z,379
2022-07-25T12:17:08.359Z,370
2022-07-25T12:18:07.887Z,366
2022-07-25T12:19:08.734Z,357
2022-07-25T12:20:10.999Z,350
2022-07-25T12:21:08.441Z,352
2022-07-25T12:22:08.547Z,357
2022-07-25T12:23:08.631Z,353
2022-07-25T12:24:07.711Z,345
2022-07-25T12:25:07.609Z,347
2022-07-25T12:26:07.656Z,354
2022-07-25T12:27:07.292Z,344
2022-07-25T12:28:08.192Z,341
2022-07-25T12:29:08.390Z,362
2022-07-25T12:30:07.670Z,363
2022-07-25T12:31:07.963Z,364
2022-07-25T12:32:08.241Z,361
2022-07-25T12:33:08.286Z,359
2022-07-25T12:34:08.068Z,353
2022-07-25T12:35:08.214Z,367
2022-07-25T12:36:08.594Z,358
2022-07-25T12:37:07.745Z,357
2022-07-25T12:38:08.075Z,368
2022-07-25T12:39:08.653Z,356
2022-07-25T12:40:08.373Z,348
2022-07-25T12:41:08.205Z,363
2022-07-25T12:42:08.571Z,365
2022-07-25T12:43:08.223Z,351
2022-07-25T12:44:08.320Z,362
2022-07-25T12:45:07.925Z,373
2022-07-25T12:46:07.895Z,367
2022-07-25T12:47:08.239Z,358
2022-07-25T12:48:08.056Z,353
2022-07-25T12:49:08.499Z,344
2022-07-25T12:50:08.257Z,356
2022-07-25T12:51:08.222Z,366
2022-07-25T12:52:08.374Z,365
2022-07-25T12:53:08.433Z,368
2022-07-25T12:54:08.664Z,365
2022-07-25T12:55:07.546Z,364
2022-07-25T12:56:07.310Z,370
2022-07-25T12:57:08.096Z,372
2022-07-25T12:58:07.609Z,374
2022-07-25T12:59:07.854Z,360
2022-07-25T13:00:08.525Z,355
2022-07-25T13:01:07.447Z,367
2022-07-25T13:02:07.638Z,380
2022-07-25T13:03:08.334Z,379
2022-07-25T13:04:08.459Z,368
2022-07-25T13:05:08.324Z,363
2022-07-25T13:06:08.012Z,366
2022-07-25T13:07:07.885Z,362
2022-07-25T13:08:07.646Z,363
2022-07-25T13:09:08.001Z,371
2022-07-25T13:10:08.324Z,364
2022-07-25T13:11:07.967Z,361
2022-07-25T13:12:07.714Z,349
2022-07-25T13:13:08.007Z,347
2022-07-25T13:15:08.169Z,350
2022-07-25T13:16:08.084Z,344
2022-07-25T13:17:08.088Z,353
2022-07-25T13:18:08.367Z,352
2022-07-25T13:19:08.611Z,351
2022-07-25T13:20:08.201Z,339
2022-07-25T13:22:08.096Z,340
2022-07-25T13:23:08.379Z,353
2022-07-25T13:24:08.299Z,351
2022-07-25T13:25:07.607Z,354
2022-07-25T13:26:08.309Z,356
2022-07-25T13:27:08.117Z,363
2022-07-25T13:28:10.954Z,361
2022-07-25T13:29:08.572Z,354
2022-07-25T13:30:08.382Z,358
2022-07-25T13:31:07.448Z,355
2022-07-25T13:32:07.903Z,365
2022-07-25T13:33:07.978Z,348
2022-07-25T13:34:08.032Z,347
2022-07-25T13:35:08.117Z,346
2022-07-25T13:36:07.980Z,365
2022-07-25T13:37:08.286Z,352
2022-07-25T13:38:08.260Z,337
2022-07-25T13:39:08.456Z,345
2022-07-25T13:40:07.634Z,350
2022-07-25T13:41:07.953Z,361
2022-07-25T13:42:07.564Z,363
2022-07-25T13:43:08.356Z,360
2022-07-25T13:44:08.146Z,348
2022-07-25T13:45:08.345Z,355
2022-07-25T13:46:08.304Z,349
2022-07-25T13:47:08.309Z,331
2022-07-25T13:48:28.456Z,328
2022-07-25T13:49:08.328Z,338
2022-07-25T13:50:07.794Z,341
2022-07-25T13:51:07.878Z,349
2022-07-25T13:52:07.904Z,355
2022-07-25T13:53:07.647Z,358
2022-07-25T13:54:08.577Z,354
2022-07-25T13:55:08.171Z,360
2022-07-25T13:56:07.652Z,361
2022-07-25T13:57:07.657Z,372
2022-07-25T13:58:07.299Z,368
2022-07-25T13:59:08.333Z,352
2022-07-25T14:00:08.800Z,350
2022-07-25T14:01:08.224Z,328
2022-07-25T14:02:08.376Z,337
2022-07-25T14:03:07.911Z,345
2022-07-25T14:04:07.798Z,327
2022-07-25T14:05:07.818Z,341
2022-07-25T14:06:07.903Z,357
2022-07-25T14:07:07.461Z,350
2022-07-25T14:08:07.608Z,349
2022-07-25T14:09:08.101Z,346
2022-07-25T14:10:08.367Z,336
2022-07-25T14:11:08.273Z,329
2022-07-25T14:13:08.199Z,325
2022-07-25T14:14:08.724Z,339
2022-07-25T14:15:08.017Z,341
2022-07-25T14:16:08.051Z,349
2022-07-25T14:17:07.659Z,335
2022-07-25T14:18:08.018Z,329
2022-07-25T14:19:08.268Z,316
2022-07-25T14:20:07.758Z,339
2022-07-25T14:21:07.580Z,356
2022-07-25T14:22:07.775Z,359
2022-07-25T14:23:07.459Z,344
2022-07-25T14:25:08.545Z,339
2022-07-25T14:26:08.485Z,340
2022-07-25T14:27:07.523Z,348
2022-07-25T14:28:08.233Z,362